sensor_id;sensor_type;location;lat;lon;timestamp;pressure;altitude;pressure_sealevel;temperature;humidity
42591;BME280;28218;53.342;-6.216;2023-05-23T00:00:20;103023.94;;;13.78;100.00
42591;BME280;28218;53.342;-6.216;2023-05-23T00:02:49;103026.97;;;13.73;100.00
42591;BME280;28218;53.342;-6.216;2023-05-23T00:05:20;103027.84;;;13.74;100.00
42591;BME280;28218;53.342;-6.216;2023-05-23T00:07:48;103033.97;;;13.74;100.00
42591;BME280;28218;53.342;-6.216;2023-05-23T00:10:16;103037.56;;;13.73;100.00
42591;BME280;28218;53.342;-6.216;2023-05-23T00:12:45;103026.16;;;13.73;100.00
42591;BME280;28218;53.342;-6.216;2023-05-23T00:15:14;103033.41;;;13.71;100.00
42591;BME280;28218;53.342;-6.216;2023-05-23T00:17:42;103033.66;;;13.68;100.00
42591;BME280;28218;53.342;-6.216;2023-05-23T00:20:11;103027.78;;;13.64;100.00
42591;BME280;28218;53.342;-6.216;2023-05-23T00:22:40;103027.91;;;13.63;100.00
42591;BME280;28218;53.342;-6.216;2023-05-23T00:25:09;103031.41;;;13.63;100.00
42591;BME280;28218;53.342;-6.216;2023-05-23T00:27:37;103035.59;;;13.66;100.00
42591;BME280;28218;53.342;-6.216;2023-05-23T00:30:06;103031.97;;;13.67;100.00
42591;BME280;28218;53.342;-6.216;2023-05-23T00:32:35;103035.03;;;13.62;100.00
42591;BME280;28218;53.342;-6.216;2023-05-23T00:35:04;103036.59;;;13.65;100.00
42591;BME280;28218;53.342;-6.216;2023-05-23T00:37:32;103033.78;;;13.66;100.00
42591;BME280;28218;53.342;-6.216;2023-05-23T00:40:02;103032.13;;;13.65;100.00
42591;BME280;28218;53.342;-6.216;2023-05-23T00:42:31;103026.94;;;13.64;100.00
42591;BME280;28218;53.342;-6.216;2023-05-23T00:44:59;103032.50;;;13.61;100.00
42591;BME280;28218;53.342;-6.216;2023-05-23T00:47:28;103027.47;;;13.58;100.00
42591;BME280;28218;53.342;-6.216;2023-05-23T00:49:56;103024.13;;;13.55;100.00
42591;BME280;28218;53.342;-6.216;2023-05-23T00:52:25;103020.75;;;13.53;100.00
42591;BME280;28218;53.342;-6.216;2023-05-23T00:54:54;103019.78;;;13.54;100.00
42591;BME280;28218;53.342;-6.216;2023-05-23T00:57:23;103018.25;;;13.52;100.00
42591;BME280;28218;53.342;-6.216;2023-05-23T00:59:52;103018.38;;;13.50;100.00
42591;BME280;28218;53.342;-6.216;2023-05-23T01:02:21;103020.06;;;13.51;100.00
42591;BME280;28218;53.342;-6.216;2023-05-23T01:04:49;103013.78;;;13.52;100.00
42591;BME280;28218;53.342;-6.216;2023-05-23T01:07:20;103013.53;;;13.55;100.00
42591;BME280;28218;53.342;-6.216;2023-05-23T01:09:49;103015.47;;;13.53;100.00
42591;BME280;28218;53.342;-6.216;2023-05-23T01:12:24;103015.47;;;13.53;100.00
42591;BME280;28218;53.342;-6.216;2023-05-23T01:15:03;103019.09;;;13.52;100.00
42591;BME280;28218;53.342;-6.216;2023-05-23T01:17:39;103014.03;;;13.49;100.00
42591;BME280;28218;53.342;-6.216;2023-05-23T01:20:10;103019.34;;;13.49;100.00
42591;BME280;28218;53.342;-6.216;2023-05-23T01:23:04;103017.66;;;13.48;100.00
42591;BME280;28218;53.342;-6.216;2023-05-23T01:25:46;103025.59;;;13.48;100.00
42591;BME280;28218;53.342;-6.216;2023-05-23T01:28:19;103034.38;;;13.49;100.00
42591;BME280;28218;53.342;-6.216;2023-05-23T01:30:51;103022.25;;;13.46;100.00
42591;BME280;28218;53.342;-6.216;2023-05-23T01:33:20;103024.19;;;13.44;100.00
42591;BME280;28218;53.342;-6.216;2023-05-23T01:35:49;103032.41;;;13.41;100.00
42591;BME280;28218;53.342;-6.216;2023-05-23T01:38:18;103028.78;;;13.42;100.00
42591;BME280;28218;53.342;-6.216;2023-05-23T01:40:46;103021.81;;;13.41;100.00
42591;BME280;28218;53.342;-6.216;2023-05-23T01:43:15;103024.31;;;13.43;100.00
42591;BME280;28218;53.342;-6.216;2023-05-23T01:45:45;103024.56;;;13.40;100.00
42591;BME280;28218;53.342;-6.216;2023-05-23T01:48:14;103027.94;;;13.42;100.00
42591;BME280;28218;53.342;-6.216;2023-05-23T01:50:44;103030.47;;;13.43;100.00
42591;BME280;28218;53.342;-6.216;2023-05-23T01:53:15;103029.78;;;13.41;100.00
42591;BME280;28218;53.342;-6.216;2023-05-23T01:55:44;103037.81;;;13.40;100.00
42591;BME280;28218;53.342;-6.216;2023-05-23T01:58:13;103034.34;;;13.39;100.00
42591;BME280;28218;53.342;-6.216;2023-05-23T02:00:41;103040.75;;;13.37;100.00
42591;BME280;28218;53.342;-6.216;2023-05-23T02:03:11;103043.66;;;13.34;100.00
42591;BME280;28218;53.342;-6.216;2023-05-23T02:05:40;103039.81;;;13.26;100.00
42591;BME280;28218;53.342;-6.216;2023-05-23T02:08:09;103043.78;;;13.32;100.00
42591;BME280;28218;53.342;-6.216;2023-05-23T02:10:37;103041.59;;;13.37;100.00
42591;BME280;28218;53.342;-6.216;2023-05-23T02:13:05;103038.22;;;13.35;100.00
42591;BME280;28218;53.342;-6.216;2023-05-23T02:15:33;103027.31;;;13.28;100.00
42591;BME280;28218;53.342;-6.216;2023-05-23T02:18:02;103023.53;;;13.31;100.00
42591;BME280;28218;53.342;-6.216;2023-05-23T02:20:33;103026.91;;;13.33;100.00
42591;BME280;28218;53.342;-6.216;2023-05-23T02:23:02;103032.22;;;13.33;100.00
42591;BME280;28218;53.342;-6.216;2023-05-23T02:25:30;103035.69;;;13.34;100.00
42591;BME280;28218;53.342;-6.216;2023-05-23T02:27:58;103033.88;;;13.34;100.00
42591;BME280;28218;53.342;-6.216;2023-05-23T02:30:27;103032.91;;;13.35;100.00
42591;BME280;28218;53.342;-6.216;2023-05-23T02:32:55;103036.00;;;13.40;100.00
42591;BME280;28218;53.342;-6.216;2023-05-23T02:35:24;103040.59;;;13.38;100.00
42591;BME280;28218;53.342;-6.216;2023-05-23T02:37:53;103036.84;;;13.41;100.00
42591;BME280;28218;53.342;-6.216;2023-05-23T02:40:22;103039.50;;;13.41;100.00
42591;BME280;28218;53.342;-6.216;2023-05-23T02:42:50;103036.97;;;13.39;100.00
42591;BME280;28218;53.342;-6.216;2023-05-23T02:45:18;103037.97;;;13.38;100.00
42591;BME280;28218;53.342;-6.216;2023-05-23T02:47:46;103035.31;;;13.38;100.00
42591;BME280;28218;53.342;-6.216;2023-05-23T02:50:15;103038.94;;;13.37;100.00
42591;BME280;28218;53.342;-6.216;2023-05-23T02:52:43;103038.50;;;13.32;100.00
42591;BME280;28218;53.342;-6.216;2023-05-23T02:55:13;103037.66;;;13.32;100.00
42591;BME280;28218;53.342;-6.216;2023-05-23T02:57:41;103036.34;;;13.26;100.00
42591;BME280;28218;53.342;-6.216;2023-05-23T03:00:10;103032.75;;;13.27;100.00
42591;BME280;28218;53.342;-6.216;2023-05-23T03:02:39;103035.50;;;13.25;100.00
42591;BME280;28218;53.342;-6.216;2023-05-23T03:05:08;103034.66;;;13.25;100.00
42591;BME280;28218;53.342;-6.216;2023-05-23T03:07:36;103035.84;;;13.21;100.00
42591;BME280;28218;53.342;-6.216;2023-05-23T03:10:05;103038.44;;;13.22;100.00
42591;BME280;28218;53.342;-6.216;2023-05-23T03:12:35;103034.66;;;13.25;100.00
42591;BME280;28218;53.342;-6.216;2023-05-23T03:15:05;103038.03;;;13.27;100.00
42591;BME280;28218;53.342;-6.216;2023-05-23T03:17:33;103033.97;;;13.23;100.00
42591;BME280;28218;53.342;-6.216;2023-05-23T03:20:01;103036.13;;;13.18;100.00
42591;BME280;28218;53.342;-6.216;2023-05-23T03:22:30;103044.56;;;13.23;100.00
42591;BME280;28218;53.342;-6.216;2023-05-23T03:24:58;103046.44;;;13.21;100.00
42591;BME280;28218;53.342;-6.216;2023-05-23T03:27:27;103046.22;;;13.24;100.00
42591;BME280;28218;53.342;-6.216;2023-05-23T03:29:56;103042.84;;;13.22;100.00
42591;BME280;28218;53.342;-6.216;2023-05-23T03:32:25;103035.84;;;13.21;100.00
42591;BME280;28218;53.342;-6.216;2023-05-23T03:34:53;103035.16;;;13.19;100.00
42591;BME280;28218;53.342;-6.216;2023-05-23T03:37:22;103039.34;;;13.21;100.00
42591;BME280;28218;53.342;-6.216;2023-05-23T03:39:50;103034.19;;;13.20;100.00
42591;BME280;28218;53.342;-6.216;2023-05-23T03:42:18;103039.63;;;13.18;100.00
42591;BME280;28218;53.342;-6.216;2023-05-23T03:44:46;103029.03;;;13.18;100.00
42591;BME280;28218;53.342;-6.216;2023-05-23T03:47:16;103030.25;;;13.14;100.00
42591;BME280;28218;53.342;-6.216;2023-05-23T03:49:44;103026.50;;;13.17;100.00
42591;BME280;28218;53.342;-6.216;2023-05-23T03:52:12;103023.97;;;13.15;100.00
42591;BME280;28218;53.342;-6.216;2023-05-23T03:54:40;103023.16;;;13.15;100.00
42591;BME280;28218;53.342;-6.216;2023-05-23T03:57:09;103022.69;;;13.10;100.00
42591;BME280;28218;53.342;-6.216;2023-05-23T03:59:37;103024.13;;;13.14;100.00
42591;BME280;28218;53.342;-6.216;2023-05-23T04:02:05;103024.13;;;13.14;100.00
42591;BME280;28218;53.342;-6.216;2023-05-23T04:04:35;103029.41;;;13.14;100.00
42591;BME280;28218;53.342;-6.216;2023-05-23T04:07:05;103030.25;;;13.14;100.00
42591;BME280;28218;53.342;-6.216;2023-05-23T04:09:35;103027.47;;;13.16;100.00
42591;BME280;28218;53.342;-6.216;2023-05-23T04:12:03;103029.28;;;13.15;100.00
42591;BME280;28218;53.342;-6.216;2023-05-23T04:14:31;103013.91;;;13.09;100.00
42591;BME280;28218;53.342;-6.216;2023-05-23T04:17:00;103014.88;;;13.08;100.00
42591;BME280;28218;53.342;-6.216;2023-05-23T04:19:28;103010.53;;;13.07;100.00
42591;BME280;28218;53.342;-6.216;2023-05-23T04:21:58;103005.25;;;13.07;100.00
42591;BME280;28218;53.342;-6.216;2023-05-23T04:24:26;103016.81;;;13.06;100.00
42591;BME280;28218;53.342;-6.216;2023-05-23T04:26:54;103015.13;;;13.05;100.00
42591;BME280;28218;53.342;-6.216;2023-05-23T04:29:23;103018.63;;;13.05;100.00
42591;BME280;28218;53.342;-6.216;2023-05-23T04:31:52;103017.66;;;13.07;100.00
42591;BME280;28218;53.342;-6.216;2023-05-23T04:34:20;103015.00;;;13.07;100.00
42591;BME280;28218;53.342;-6.216;2023-05-23T04:36:49;103019.47;;;13.06;100.00
42591;BME280;28218;53.342;-6.216;2023-05-23T04:39:20;103018.63;;;13.05;100.00
42591;BME280;28218;53.342;-6.216;2023-05-23T04:41:49;103020.56;;;13.03;100.00
42591;BME280;28218;53.342;-6.216;2023-05-23T04:44:17;103017.44;;;12.98;100.00
42591;BME280;28218;53.342;-6.216;2023-05-23T04:46:46;103020.09;;;12.98;100.00
42591;BME280;28218;53.342;-6.216;2023-05-23T04:49:14;103016.34;;;13.01;100.00
42591;BME280;28218;53.342;-6.216;2023-05-23T04:51:42;103021.91;;;12.98;100.00
42591;BME280;28218;53.342;-6.216;2023-05-23T04:54:10;103023.69;;;12.97;100.00
42591;BME280;28218;53.342;-6.216;2023-05-23T04:56:40;103025.38;;;12.98;100.00
42591;BME280;28218;53.342;-6.216;2023-05-23T04:59:08;103028.75;;;13.00;100.00
42591;BME280;28218;53.342;-6.216;2023-05-23T05:01:37;103026.25;;;12.99;100.00
42591;BME280;28218;53.342;-6.216;2023-05-23T05:04:06;103027.78;;;13.01;100.00
42591;BME280;28218;53.342;-6.216;2023-05-23T05:06:35;103028.63;;;13.02;100.00
42591;BME280;28218;53.342;-6.216;2023-05-23T05:09:03;103030.19;;;13.04;100.00
42591;BME280;28218;53.342;-6.216;2023-05-23T05:11:32;103031.25;;;13.02;100.00
42591;BME280;28218;53.342;-6.216;2023-05-23T05:14:02;103031.25;;;13.02;100.00
42591;BME280;28218;53.342;-6.216;2023-05-23T05:16:30;103044.63;;;13.00;100.00
42591;BME280;28218;53.342;-6.216;2023-05-23T05:18:58;103034.03;;;13.00;100.00
42591;BME280;28218;53.342;-6.216;2023-05-23T05:21:27;103039.94;;;13.04;100.00
42591;BME280;28218;53.342;-6.216;2023-05-23T05:23:55;103038.97;;;13.05;100.00
42591;BME280;28218;53.342;-6.216;2023-05-23T05:26:23;103038.22;;;13.03;100.00
42591;BME280;28218;53.342;-6.216;2023-05-23T05:28:52;103039.94;;;13.04;100.00
42591;BME280;28218;53.342;-6.216;2023-05-23T05:31:22;103037.75;;;13.09;100.00
42591;BME280;28218;53.342;-6.216;2023-05-23T05:33:51;103031.09;;;13.15;100.00
42591;BME280;28218;53.342;-6.216;2023-05-23T05:36:19;103033.72;;;13.15;100.00
42591;BME280;28218;53.342;-6.216;2023-05-23T05:38:48;103038.06;;;13.16;100.00
42591;BME280;28218;53.342;-6.216;2023-05-23T05:41:17;103036.38;;;13.15;100.00
42591;BME280;28218;53.342;-6.216;2023-05-23T05:43:45;103023.84;;;13.17;100.00
42591;BME280;28218;53.342;-6.216;2023-05-23T05:46:13;103023.84;;;13.17;100.00
42591;BME280;28218;53.342;-6.216;2023-05-23T05:48:44;103021.56;;;13.23;100.00
42591;BME280;28218;53.342;-6.216;2023-05-23T05:51:13;103021.44;;;13.25;100.00
42591;BME280;28218;53.342;-6.216;2023-05-23T05:53:42;103020.59;;;13.24;100.00
42591;BME280;28218;53.342;-6.216;2023-05-23T05:56:10;103014.06;;;13.28;100.00
42591;BME280;28218;53.342;-6.216;2023-05-23T05:58:38;103016.09;;;13.36;100.00
42591;BME280;28218;53.342;-6.216;2023-05-23T06:01:06;103015.09;;;13.37;100.00
42591;BME280;28218;53.342;-6.216;2023-05-23T06:03:35;103024.56;;;13.40;100.00
42591;BME280;28218;53.342;-6.216;2023-05-23T06:06:05;103020.13;;;13.40;100.00
42591;BME280;28218;53.342;-6.216;2023-05-23T06:08:34;103014.56;;;13.43;100.00
42591;BME280;28218;53.342;-6.216;2023-05-23T06:11:03;103017.06;;;13.45;100.00
42591;BME280;28218;53.342;-6.216;2023-05-23T06:13:31;103009.56;;;13.50;100.00
42591;BME280;28218;53.342;-6.216;2023-05-23T06:15:59;103016.28;;;13.54;100.00
42591;BME280;28218;53.342;-6.216;2023-05-23T06:18:27;103013.53;;;13.55;100.00
42591;BME280;28218;53.342;-6.216;2023-05-23T06:20:56;103012.56;;;13.57;100.00
42591;BME280;28218;53.342;-6.216;2023-05-23T06:23:25;103018.16;;;13.63;100.00
42591;BME280;28218;53.342;-6.216;2023-05-23T06:25:54;103018.59;;;13.68;100.00
42591;BME280;28218;53.342;-6.216;2023-05-23T06:28:22;103024.47;;;13.72;100.00
42591;BME280;28218;53.342;-6.216;2023-05-23T06:30:51;103019.75;;;13.75;100.00
42591;BME280;28218;53.342;-6.216;2023-05-23T06:33:19;103023.09;;;13.77;100.00
42591;BME280;28218;53.342;-6.216;2023-05-23T06:35:47;103025.50;;;13.80;100.00
42591;BME280;28218;53.342;-6.216;2023-05-23T06:38:15;103030.13;;;13.88;100.00
42591;BME280;28218;53.342;-6.216;2023-05-23T06:40:45;103029.41;;;13.86;100.00
42591;BME280;28218;53.342;-6.216;2023-05-23T06:43:14;103026.50;;;13.89;100.00
42591;BME280;28218;53.342;-6.216;2023-05-23T06:45:44;103039.03;;;13.87;100.00
42591;BME280;28218;53.342;-6.216;2023-05-23T06:48:13;103036.53;;;13.86;100.00
42591;BME280;28218;53.342;-6.216;2023-05-23T06:50:41;103043.66;;;13.85;100.00
42591;BME280;28218;53.342;-6.216;2023-05-23T06:53:10;103040.16;;;13.85;100.00
42591;BME280;28218;53.342;-6.216;2023-05-23T06:55:38;103034.47;;;13.89;100.00
42591;BME280;28218;53.342;-6.216;2023-05-23T06:58:08;103041.00;;;13.85;100.00
42591;BME280;28218;53.342;-6.216;2023-05-23T07:00:36;103039.31;;;13.84;100.00
42591;BME280;28218;53.342;-6.216;2023-05-23T07:03:06;103037.41;;;13.96;100.00
42591;BME280;28218;53.342;-6.216;2023-05-23T07:05:34;103028.75;;;13.94;100.00
42591;BME280;28218;53.342;-6.216;2023-05-23T07:08:06;103037.16;;;13.99;100.00
42591;BME280;28218;53.342;-6.216;2023-05-23T07:10:37;103028.03;;;13.92;100.00
42591;BME280;28218;53.342;-6.216;2023-05-23T07:13:09;103035.31;;;13.99;100.00
42591;BME280;28218;53.342;-6.216;2023-05-23T07:15:37;103038.56;;;14.03;100.00
42591;BME280;28218;53.342;-6.216;2023-05-23T07:18:06;103032.72;;;14.09;100.00
42591;BME280;28218;53.342;-6.216;2023-05-23T07:20:34;103023.25;;;14.16;100.00
42591;BME280;28218;53.342;-6.216;2023-05-23T07:23:03;103027.59;;;14.27;100.00
42591;BME280;28218;53.342;-6.216;2023-05-23T07:25:31;103038.09;;;14.38;100.00
42591;BME280;28218;53.342;-6.216;2023-05-23T07:27:59;103036.03;;;14.51;100.00
42591;BME280;28218;53.342;-6.216;2023-05-23T07:30:29;103032.00;;;14.67;100.00
42591;BME280;28218;53.342;-6.216;2023-05-23T07:32:59;103027.84;;;14.74;100.00
42591;BME280;28218;53.342;-6.216;2023-05-23T07:35:27;103022.94;;;14.79;100.00
42591;BME280;28218;53.342;-6.216;2023-05-23T07:37:55;103025.03;;;14.85;100.00
42591;BME280;28218;53.342;-6.216;2023-05-23T07:40:24;103026.16;;;14.92;100.00
42591;BME280;28218;53.342;-6.216;2023-05-23T07:42:52;103033.41;;;15.00;100.00
42591;BME280;28218;53.342;-6.216;2023-05-23T07:45:21;103031.56;;;15.00;100.00
42591;BME280;28218;53.342;-6.216;2023-05-23T07:47:51;103034.94;;;15.02;100.00
42591;BME280;28218;53.342;-6.216;2023-05-23T07:50:19;103037.03;;;15.08;100.00
42591;BME280;28218;53.342;-6.216;2023-05-23T07:52:48;103022.91;;;15.08;100.00
42591;BME280;28218;53.342;-6.216;2023-05-23T07:55:17;103034.25;;;15.20;100.00
42591;BME280;28218;53.342;-6.216;2023-05-23T07:57:46;103038.38;;;15.32;100.00
42591;BME280;28218;53.342;-6.216;2023-05-23T08:00:15;103045.22;;;15.44;100.00
42591;BME280;28218;53.342;-6.216;2023-05-23T08:02:43;103055.53;;;15.57;100.00
42591;BME280;28218;53.342;-6.216;2023-05-23T08:05:13;103060.41;;;15.71;100.00
42591;BME280;28218;53.342;-6.216;2023-05-23T08:07:41;103068.09;;;15.74;100.00
42591;BME280;28218;53.342;-6.216;2023-05-23T08:10:10;103052.56;;;15.79;100.00
42591;BME280;28218;53.342;-6.216;2023-05-23T08:12:38;103049.34;;;15.86;100.00
42591;BME280;28218;53.342;-6.216;2023-05-23T08:15:07;103051.41;;;15.92;100.00
42591;BME280;28218;53.342;-6.216;2023-05-23T08:17:36;103049.28;;;15.95;100.00
42591;BME280;28218;53.342;-6.216;2023-05-23T08:20:05;103051.34;;;16.01;100.00
42591;BME280;28218;53.342;-6.216;2023-05-23T08:22:37;103045.44;;;16.07;100.00
42591;BME280;28218;53.342;-6.216;2023-05-23T08:25:05;103047.09;;;16.08;100.00
42591;BME280;28218;53.342;-6.216;2023-05-23T08:27:33;103047.09;;;16.08;100.00
42591;BME280;28218;53.342;-6.216;2023-05-23T08:30:03;103044.88;;;16.04;100.00
42591;BME280;28218;53.342;-6.216;2023-05-23T08:32:32;103047.09;;;16.08;100.00
42591;BME280;28218;53.342;-6.216;2023-05-23T08:35:00;103042.03;;;16.15;100.00
42591;BME280;28218;53.342;-6.216;2023-05-23T08:37:29;103042.28;;;16.22;100.00
42591;BME280;28218;53.342;-6.216;2023-05-23T08:39:59;103044.19;;;16.29;100.00
42591;BME280;28218;53.342;-6.216;2023-05-23T08:42:27;103050.19;;;16.31;100.00
42591;BME280;28218;53.342;-6.216;2023-05-23T08:44:56;103052.63;;;16.25;100.00
42591;BME280;28218;53.342;-6.216;2023-05-23T08:47:24;103056.19;;;16.16;100.00
42591;BME280;28218;53.342;-6.216;2023-05-23T08:49:54;103042.88;;;16.16;100.00
42591;BME280;28218;53.342;-6.216;2023-05-23T08:52:24;103054.91;;;16.20;100.00
42591;BME280;28218;53.342;-6.216;2023-05-23T08:54:53;103052.69;;;16.15;100.00
42591;BME280;28218;53.342;-6.216;2023-05-23T08:57:24;103052.53;;;16.17;100.00
42591;BME280;28218;53.342;-6.216;2023-05-23T08:59:52;103056.34;;;16.14;100.00
42591;BME280;28218;53.342;-6.216;2023-05-23T09:02:22;103049.25;;;16.23;100.00
42591;BME280;28218;53.342;-6.216;2023-05-23T09:04:51;103042.75;;;16.35;100.00
42591;BME280;28218;53.342;-6.216;2023-05-23T09:07:20;103043.84;;;16.42;100.00
42591;BME280;28218;53.342;-6.216;2023-05-23T09:09:48;103040.59;;;16.48;100.00
42591;BME280;28218;53.342;-6.216;2023-05-23T09:12:17;103032.59;;;16.48;100.00
42591;BME280;28218;53.342;-6.216;2023-05-23T09:14:49;103046.97;;;16.55;100.00
42591;BME280;28218;53.342;-6.216;2023-05-23T09:17:19;103033.97;;;16.52;100.00
42591;BME280;28218;53.342;-6.216;2023-05-23T09:19:48;103039.50;;;16.59;100.00
42591;BME280;28218;53.342;-6.216;2023-05-23T09:22:23;103028.41;;;16.64;100.00
42591;BME280;28218;53.342;-6.216;2023-05-23T09:24:51;103036.41;;;16.64;100.00
42591;BME280;28218;53.342;-6.216;2023-05-23T09:27:20;103028.13;;;16.67;100.00
42591;BME280;28218;53.342;-6.216;2023-05-23T09:29:50;103028.53;;;16.72;100.00
42591;BME280;28218;53.342;-6.216;2023-05-23T09:32:19;103032.69;;;16.74;100.00
42591;BME280;28218;53.342;-6.216;2023-05-23T09:34:55;103020.63;;;16.80;100.00
42591;BME280;28218;53.342;-6.216;2023-05-23T09:37:28;103018.34;;;16.85;100.00
42591;BME280;28218;53.342;-6.216;2023-05-23T09:39:58;103017.63;;;17.01;100.00
42591;BME280;28218;53.342;-6.216;2023-05-23T09:42:30;103020.03;;;17.12;100.00
42591;BME280;28218;53.342;-6.216;2023-05-23T09:45:02;103005.94;;;17.20;100.00
42591;BME280;28218;53.342;-6.216;2023-05-23T09:47:30;103027.16;;;17.29;100.00
42591;BME280;28218;53.342;-6.216;2023-05-23T09:49:59;103023.38;;;17.40;100.00
42591;BME280;28218;53.342;-6.216;2023-05-23T09:52:35;103020.72;;;17.40;100.00
42591;BME280;28218;53.342;-6.216;2023-05-23T09:55:04;103008.44;;;17.47;100.00
42591;BME280;28218;53.342;-6.216;2023-05-23T09:57:33;103012.00;;;17.56;100.00
42591;BME280;28218;53.342;-6.216;2023-05-23T10:00:06;103008.50;;;17.63;100.00
42591;BME280;28218;53.342;-6.216;2023-05-23T10:02:53;103008.50;;;17.63;100.00
42591;BME280;28218;53.342;-6.216;2023-05-23T10:05:31;103020.53;;;17.68;100.00
42591;BME280;28218;53.342;-6.216;2023-05-23T10:08:03;103017.63;;;17.79;100.00
42591;BME280;28218;53.342;-6.216;2023-05-23T10:10:34;103011.66;;;17.85;100.00
42591;BME280;28218;53.342;-6.216;2023-05-23T10:13:04;103014.84;;;17.97;100.00
42591;BME280;28218;53.342;-6.216;2023-05-23T10:15:38;103015.38;;;18.00;100.00
42591;BME280;28218;53.342;-6.216;2023-05-23T10:18:16;103018.72;;;18.02;100.00
42591;BME280;28218;53.342;-6.216;2023-05-23T10:20:48;103022.25;;;18.11;100.00
42591;BME280;28218;53.342;-6.216;2023-05-23T10:23:17;103015.44;;;18.17;100.00
42591;BME280;28218;53.342;-6.216;2023-05-23T10:25:47;103014.25;;;18.19;100.00
42591;BME280;28218;53.342;-6.216;2023-05-23T10:28:15;103013.78;;;18.24;100.00
42591;BME280;28218;53.342;-6.216;2023-05-23T10:30:45;103012.13;;;18.31;100.00
42591;BME280;28218;53.342;-6.216;2023-05-23T10:33:14;103011.78;;;18.34;100.00
42591;BME280;28218;53.342;-6.216;2023-05-23T10:35:50;103002.16;;;18.41;100.00
42591;BME280;28218;53.342;-6.216;2023-05-23T10:38:31;102999.97;;;18.53;100.00
42591;BME280;28218;53.342;-6.216;2023-05-23T10:41:08;103005.16;;;18.62;100.00
42591;BME280;28218;53.342;-6.216;2023-05-23T10:43:44;103008.88;;;18.70;100.00
42591;BME280;28218;53.342;-6.216;2023-05-23T10:46:18;102999.22;;;18.69;100.00
42591;BME280;28218;53.342;-6.216;2023-05-23T10:48:53;103004.84;;;18.65;100.00
42591;BME280;28218;53.342;-6.216;2023-05-23T10:51:23;102992.31;;;18.66;100.00
42591;BME280;28218;53.342;-6.216;2023-05-23T10:53:53;102980.84;;;18.74;100.00
42591;BME280;28218;53.342;-6.216;2023-05-23T10:56:22;102981.81;;;18.81;100.00
42591;BME280;28218;53.342;-6.216;2023-05-23T10:58:51;102985.34;;;18.89;100.00
42591;BME280;28218;53.342;-6.216;2023-05-23T11:01:22;102997.53;;;18.92;100.00
42591;BME280;28218;53.342;-6.216;2023-05-23T11:03:52;102994.50;;;18.95;100.00
42591;BME280;28218;53.342;-6.216;2023-05-23T11:06:30;102996.84;;;19.06;100.00
42591;BME280;28218;53.342;-6.216;2023-05-23T11:09:03;102989.66;;;19.15;100.00
42591;BME280;28218;53.342;-6.216;2023-05-23T11:12:01;102995.13;;;19.30;100.00
42591;BME280;28218;53.342;-6.216;2023-05-23T11:14:32;102987.75;;;19.40;100.00
42591;BME280;28218;53.342;-6.216;2023-05-23T11:17:15;102983.69;;;19.60;100.00
42591;BME280;28218;53.342;-6.216;2023-05-23T11:19:58;102981.81;;;19.69;100.00
42591;BME280;28218;53.342;-6.216;2023-05-23T11:22:27;102974.50;;;19.55;100.00
42591;BME280;28218;53.342;-6.216;2023-05-23T11:24:57;102976.06;;;19.41;100.00
42591;BME280;28218;53.342;-6.216;2023-05-23T11:27:27;102974.41;;;19.32;100.00
42591;BME280;28218;53.342;-6.216;2023-05-23T11:30:00;102966.06;;;19.35;100.00
42591;BME280;28218;53.342;-6.216;2023-05-23T11:32:31;102976.06;;;19.33;100.00
42591;BME280;28218;53.342;-6.216;2023-05-23T11:35:00;102974.06;;;19.35;100.00
42591;BME280;28218;53.342;-6.216;2023-05-23T11:37:29;102965.03;;;19.44;100.00
42591;BME280;28218;53.342;-6.216;2023-05-23T11:39:57;102969.81;;;19.57;100.00
42591;BME280;28218;53.342;-6.216;2023-05-23T11:42:27;102964.47;;;19.65;100.00
42591;BME280;28218;53.342;-6.216;2023-05-23T11:44:56;102962.09;;;19.70;100.00
42591;BME280;28218;53.342;-6.216;2023-05-23T11:47:24;102971.63;;;19.73;100.00
42591;BME280;28218;53.342;-6.216;2023-05-23T11:49:54;102968.94;;;19.73;100.00
42591;BME280;28218;53.342;-6.216;2023-05-23T11:52:23;102961.41;;;19.76;100.00
42591;BME280;28218;53.342;-6.216;2023-05-23T11:54:51;102944.66;;;19.82;100.00
42591;BME280;28218;53.342;-6.216;2023-05-23T11:57:22;102941.09;;;19.90;100.00
42591;BME280;28218;53.342;-6.216;2023-05-23T11:59:51;102954.28;;;20.00;100.00
42591;BME280;28218;53.342;-6.216;2023-05-23T12:02:20;102952.53;;;20.07;100.00
42591;BME280;28218;53.342;-6.216;2023-05-23T12:04:48;102959.69;;;20.14;100.00
42591;BME280;28218;53.342;-6.216;2023-05-23T12:07:19;102953.63;;;20.21;100.00
42591;BME280;28218;53.342;-6.216;2023-05-23T12:09:47;102961.31;;;20.24;100.00
42591;BME280;28218;53.342;-6.216;2023-05-23T12:12:16;102951.59;;;20.23;100.00
42591;BME280;28218;53.342;-6.216;2023-05-23T12:14:46;102953.09;;;20.25;100.00
42591;BME280;28218;53.342;-6.216;2023-05-23T12:17:14;102950.41;;;20.25;100.00
42591;BME280;28218;53.342;-6.216;2023-05-23T12:19:44;102951.06;;;20.27;100.00
42591;BME280;28218;53.342;-6.216;2023-05-23T12:22:13;102945.16;;;20.32;100.00
42591;BME280;28218;53.342;-6.216;2023-05-23T12:24:45;102944.81;;;20.35;100.00
42591;BME280;28218;53.342;-6.216;2023-05-23T12:27:15;102939.47;;;20.35;100.00
42591;BME280;28218;53.342;-6.216;2023-05-23T12:29:49;102933.47;;;20.33;100.00
42591;BME280;28218;53.342;-6.216;2023-05-23T12:32:18;102935.66;;;20.29;100.00
42591;BME280;28218;53.342;-6.216;2023-05-23T12:34:48;102938.50;;;20.28;100.00
42591;BME280;28218;53.342;-6.216;2023-05-23T12:37:16;102935.28;;;20.32;100.00
42591;BME280;28218;53.342;-6.216;2023-05-23T12:39:47;102934.75;;;20.37;100.00
42591;BME280;28218;53.342;-6.216;2023-05-23T12:42:16;102926.72;;;20.37;100.00